Terminal Aerodrome Forecast
Issued by NWS

Home | Current Version | Previous Version | Text Only | Print | Product List | Glossary On
Versions: 1 2 3 4 5 6 7 8 9 10 11 12 13
000
FTUS41 KBTV 241132
TAFRUT
TAF
KRUT 241132Z 2412/2512 22005KT P6SM VCSH BKN050
      TEMPO 2412/2414 5SM -RA BR BKN020
     FM241500 29007KT P6SM BKN050
     FM242000 27007KT P6SM SCT050
     FM250200 VRB04KT P6SM SKC
      TEMPO 2507/2511 3SM BR SCT010=

USA.gov is the U.S. government's official web portal to all federal, state and local government web resources and services.